Waverly, Tennessee
Current Conditions -  °F | °C
As of 6:15 PM on Friday 21 Nov 2014 (Local Time) from KPHT Reporting Station
Overcast Overcast  
Wind Chill: 46°   Ceiling: 3500
Heat Index: 46°   Visibility: 10mi
Dew Point: 28°   Wind: 3mph
Humidity: 50%   Direction: 90°E
Pressure: 30.34"   Gusts: NA
Location:  36.08°N, 87.79°W
Report Text: KPHT 220015Z AUTO 09003KT 10SM BKN035 OVC060 08/M02 A3034 RMK
Loading
Personal Weather Stations






























Interactive Weather Map New forecast layout! Learn more

10-Day Weather Forecast

Advertisements
Track Severe Weather on mobile